S.s. Legacy — WDG8495 — position and weather

sailwx.info

Track history (hours):
 
Tides and Currents Weather Stations Pressure Air Temp Water Temp Dewpoint Dewpoint Depression Visibility Wind Speed Wind Dir Waves Ship Positions

S.s. Legacy

Owner: InnerSea Discoveries, LLC, Seattle, WA. More information available from US FCC via Universal Licensing System and Coast Guard Vessel Documentation Center.

Last reported at 2018-Jun-24 21:00 UTC. Time now 2018-Jun-25 19:31 UTC.
Position N 57°00' W 135°18'.

Length 64 m; draft 3 m.

Type: Wing in ground effect craft. MMSI: 367578110.

Wind from 270 at 4 knots

Barometer 1013.0 mb
Air temperature 19.4 ° C
Visibility: greater than 5.4 NM

Date/timePositionNaut miles runAvg speedWind from/ knotsBaromVisibWave heightAir tempDewpointWater temp
2018-Jun-24 21:00N 57°00' W 135°18'11 0.4 270 / 41013.0 5.4 19.4
2018-Jun-23 19:00N 57°06' W 135°36'55 2.3 030 / 51018.0 5.4 17.8
2018-Jun-22 19:00N 56°36' W 134°12'   270 / 71019.0 5.4 17.8
2018-Jun-15 09:27N 58°14' W 135°24'4 8.9
2018-Jun-15 09:00N 58°16' W 135°31'4 7.9
2018-Jun-15 08:30N 58°17' W 135°38'5 9.2
2018-Jun-15 08:00N 58°18' W 135°47'511.2
2018-Jun-15 07:30N 58°21' W 135°56'4 7.2
2018-Jun-15 07:01N 58°24' W 135°57'3 6.9
2018-Jun-15 06:31N 58°27' W 135°54'0 0.6
2018-Jun-15 05:58N 58°27' W 135°53'0 0.0
2018-Jun-15 05:28N 58°27' W 135°53'0 0.0
2018-Jun-15 04:58N 58°27' W 135°53'0 0.0
2018-Jun-15 04:28N 58°27' W 135°53'0 0.0
2018-Jun-15 03:58N 58°27' W 135°53'0 0.0
2018-Jun-15 03:30N 58°27' W 135°53'3 5.5
2018-Jun-15 03:00N 58°26' W 135°58'612.2
2018-Jun-15 02:30N 58°31' W 136°04'612.0
2018-Jun-15 02:00N 58°37' W 136°02'2 4.7
2018-Jun-15 01:30N 58°40' W 136°03'510.5
2018-Jun-15 01:00N 58°43' W 136°11'  
Track history (hours):
 
Tides and Currents Weather Stations Pressure Air Temp Water Temp Dewpoint Dewpoint Depression Visibility Wind Speed Wind Dir Waves Ship Positions

S.s. Legacy

Owner: InnerSea Discoveries, LLC, Seattle, WA. More information available from US FCC via Universal Licensing System and Coast Guard Vessel Documentation Center.

Last reported at 2018-Jun-24 21:00 UTC. Time now 2018-Jun-25 19:31 UTC.
Position N 57°00' W 135°18'.

Length 64 m; draft 3 m.

Type: Wing in ground effect craft. MMSI: 367578110.

Wind from 270 at 4 knots

Barometer 1013.0 mb
Air temperature 19.4 ° C
Visibility: greater than 5.4 NM

Date/timePositionNaut miles runAvg speedWind from/ knotsBaromVisibWave heightAir tempDewpointWater temp
2018-Jun-24 21:00N 57°00' W 135°18'11 0.4 270 / 41013.0 5.4 19.4
2018-Jun-23 19:00N 57°06' W 135°36'55 2.3 030 / 51018.0 5.4 17.8
2018-Jun-22 19:00N 56°36' W 134°12'   270 / 71019.0 5.4 17.8
2018-Jun-15 09:27N 58°14' W 135°24'4 8.9
2018-Jun-15 09:00N 58°16' W 135°31'4 7.9
2018-Jun-15 08:30N 58°17' W 135°38'5 9.2
2018-Jun-15 08:00N 58°18' W 135°47'511.2
2018-Jun-15 07:30N 58°21' W 135°56'4 7.2
2018-Jun-15 07:01N 58°24' W 135°57'3 6.9
2018-Jun-15 06:31N 58°27' W 135°54'0 0.6
2018-Jun-15 05:58N 58°27' W 135°53'0 0.0
2018-Jun-15 05:28N 58°27' W 135°53'0 0.0
2018-Jun-15 04:58N 58°27' W 135°53'0 0.0
2018-Jun-15 04:28N 58°27' W 135°53'0 0.0
2018-Jun-15 03:58N 58°27' W 135°53'0 0.0
2018-Jun-15 03:30N 58°27' W 135°53'3 5.5
2018-Jun-15 03:00N 58°26' W 135°58'612.2
2018-Jun-15 02:30N 58°31' W 136°04'612.0
2018-Jun-15 02:00N 58°37' W 136°02'2 4.7
2018-Jun-15 01:30N 58°40' W 136°03'510.5
2018-Jun-15 01:00N 58°43' W 136°11'  

Dump ship's entire track history